Time;durP1;ratioP1;P1;durP2;ratioP2;P2;SDS_P1;SDS_P2;PMS_P1;PMS_P2;Temp;Humidity;BMP_temperature;BMP_pressure;BME280_temperature;BME280_humidity;BME280_pressure;Samples;Min_cycle;Max_cycle;Signal;HPM_P1;HPM_P2
2022/07/29 00:01:52;;;;;;;;;;;14.20;99.90;;;;;;5136962;27;19923;-69
2022/07/29 00:04:17;;;;;;;;;;;14.20;99.90;;;;;;5136749;27;19924;-69
2022/07/29 00:06:43;;;;;;;;;;;14.10;99.90;;;;;;5136616;27;19923;-70
2022/07/29 00:09:09;;;;;;;;;;;14.10;99.90;;;;;;5136512;27;20451;-68
2022/07/29 00:11:34;;;;;;;;;;;14.00;99.90;;;;;;5152758;27;20289;-69
2022/07/29 00:14:00;;;;;;;;;;;14.10;99.90;;;;;;5135808;27;19930;-70
2022/07/29 00:16:25;;;;;;;;;;;14.10;99.90;;;;;;5136506;27;20396;-69
2022/07/29 00:18:51;;;;;;;;;;;14.10;99.90;;;;;;5136507;27;19923;-68
2022/07/29 00:21:16;;;;;;;;;;;14.10;99.90;;;;;;5117673;27;20021;-67
2022/07/29 00:23:42;;;;;;;;;;;14.10;99.90;;;;;;5136249;27;19982;-69
2022/07/29 00:26:08;;;;;;;;;;;14.20;99.90;;;;;;5136500;27;20327;-68
2022/07/29 00:28:33;;;;;;;;;;;14.50;99.90;;;;;;5135941;27;19923;-70
2022/07/29 00:30:59;;;;;;;;;;;14.10;99.90;;;;;;5136059;27;20289;-69
2022/07/29 00:33:24;;;;;;;;;;;14.10;99.90;;;;;;5136279;27;19924;-68
2022/07/29 00:35:50;;;;;;;;;;;14.10;99.90;;;;;;5136092;27;19923;-68
2022/07/29 00:38:18;;;;;;;;;;;14.30;99.90;;;;;;5135962;27;19923;-68
2022/07/29 00:40:44;;;;;;;;;;;14.20;99.90;;;;;;5136232;27;19983;-70
2022/07/29 00:43:10;;;;;;;;;;;13.50;99.90;;;;;;5136113;27;19927;-68
2022/07/29 00:45:36;;;;;;;;;;;14.20;99.90;;;;;;5135966;27;19925;-70
2022/07/29 00:48:03;;;;;;;;;;;14.20;99.90;;;;;;5135991;27;19988;-68
2022/07/29 00:50:28;;;;;;;;;;;14.20;99.90;;;;;;5117547;27;19930;-69
2022/07/29 00:52:54;;;;;;;;;;;14.20;99.90;;;;;;5135727;27;19923;-69
2022/07/29 00:55:20;;;;;;;;;;;14.30;99.90;;;;;;5151950;27;19924;-68
2022/07/29 00:57:46;;;;;;;;;;;14.30;99.90;;;;;;5135762;27;19970;-68
2022/07/29 01:00:13;;;;;;;;;;;14.30;99.90;;;;;;5135677;27;19987;-69
2022/07/29 01:02:39;;;;;;;;;;;14.30;99.90;;;;;;5135660;27;19924;-70
2022/07/29 01:05:06;;;;;;;;;;;14.30;99.90;;;;;;5116959;27;20263;-70
2022/07/29 01:07:35;;;;;;;;;;;14.40;99.90;;;;;;5135499;27;19930;-69
2022/07/29 01:10:02;;;;;;;;;;;14.40;99.90;;;;;;5117123;27;19924;-70
2022/07/29 01:12:29;;;;;;;;;;;14.40;99.90;;;;;;5100372;27;19977;-68
2022/07/29 01:14:55;;;;;;;;;;;14.40;99.90;;;;;;5135480;27;19929;-68
2022/07/29 01:17:23;;;;;;;;;;;14.40;99.90;;;;;;5117419;27;19923;-68
2022/07/29 01:19:55;;;;;;;;;;;14.40;99.90;;;;;;5135392;27;19923;-68
2022/07/29 01:22:26;;;;;;;;;;;14.40;99.90;;;;;;5135221;27;20010;-69
2022/07/29 01:25:11;;;;;;;;;;;14.40;99.90;;;;;;5134987;27;19933;-68
2022/07/29 01:27:52;;;;;;;;;;;14.40;99.90;;;;;;5135087;27;19931;-68
2022/07/29 01:30:18;;;;;;;;;;;14.40;99.90;;;;;;5135020;27;19923;-69
2022/07/29 01:32:44;;;;;;;;;;;14.40;99.90;;;;;;5134842;27;20267;-68
2022/07/29 01:35:15;;;;;;;;;;;14.40;99.90;;;;;;5134900;27;19930;-69
2022/07/29 01:37:46;;;;;;;;;;;14.40;99.90;;;;;;5135144;27;20432;-68
2022/07/29 01:40:51;;;;;;;;;;;14.40;99.90;;;;;;5117035;27;19996;-68
2022/07/29 01:43:40;;;;;;;;;;;14.50;99.90;;;;;;5051593;28;20413;-69
2022/07/29 01:46:08;;;;;;;;;;;14.40;99.90;;;;;;4992241;28;20063;-68
2022/07/29 01:48:36;;;;;;;;;;;14.40;99.90;;;;;;4992286;28;19926;-68
2022/07/29 01:51:07;;;;;;;;;;;14.40;99.90;;;;;;4975920;28;20423;-68
2022/07/29 01:53:38;;;;;;;;;;;14.40;99.90;;;;;;4992174;28;19933;-68
2022/07/29 01:56:05;;;;;;;;;;;14.50;99.90;;;;;;4992112;28;19930;-70
2022/07/29 01:58:32;;;;;;;;;;;14.50;99.90;;;;;;4992222;28;19926;-68
2022/07/29 02:00:58;;;;;;;;;;;14.50;99.90;;;;;;4992018;28;19925;-69
2022/07/29 02:03:24;;;;;;;;;;;14.50;99.90;;;;;;4976138;28;19932;-69
2022/07/29 02:05:50;;;;;;;;;;;14.50;99.90;;;;;;4992126;28;19926;-68
2022/07/29 02:08:18;;;;;;;;;;;14.50;99.90;;;;;;4991998;28;20324;-69
2022/07/29 02:10:44;;;;;;;;;;;14.50;99.90;;;;;;4991966;28;20475;-69
2022/07/29 02:13:11;;;;;;;;;;;14.40;99.90;;;;;;5001051;28;20288;-67
2022/07/29 02:15:37;;;;;;;;;;;14.50;99.90;;;;;;5051239;28;19925;-70
2022/07/29 02:18:06;;;;;;;;;;;14.50;99.90;;;;;;5051274;28;19978;-68
2022/07/29 02:20:32;;;;;;;;;;;14.50;99.90;;;;;;5051229;28;20416;-69
2022/07/29 02:22:58;;;;;;;;;;;14.50;99.90;;;;;;5089378;28;19923;-70
2022/07/29 02:25:24;;;;;;;;;;;14.50;99.90;;;;;;5134395;28;20046;-69
2022/07/29 02:27:50;;;;;;;;;;;14.50;99.90;;;;;;5108053;28;19967;-68
2022/07/29 02:30:16;;;;;;;;;;;14.50;99.90;;;;;;5113888;28;19985;-68
2022/07/29 02:32:43;;;;;;;;;;;14.50;99.90;;;;;;5113892;28;20390;-70
2022/07/29 02:35:09;;;;;;;;;;;14.50;99.90;;;;;;5096076;28;19928;-68
2022/07/29 02:37:35;;;;;;;;;;;14.50;99.90;;;;;;5116712;28;20394;-68
2022/07/29 02:40:01;;;;;;;;;;;14.70;99.90;;;;;;5117779;28;20344;-68
2022/07/29 02:42:28;;;;;;;;;;;14.50;99.90;;;;;;5117630;28;19927;-69
2022/07/29 02:44:53;;;;;;;;;;;14.50;99.90;;;;;;5117903;28;19923;-70
2022/07/29 02:47:36;;;;;;;;;;;14.60;99.90;;;;;;5117881;28;19924;-70
2022/07/29 02:50:08;;;;;;;;;;;14.30;99.90;;;;;;5117602;28;19927;-70
2022/07/29 02:52:42;;;;;;;;;;;14.50;99.90;;;;;;5099464;28;19923;-68
2022/07/29 02:55:20;;;;;;;;;;;13.30;99.90;;;;;;5117529;28;19928;-68
2022/07/29 02:57:59;;;;;;;;;;;14.50;99.90;;;;;;5117486;28;19977;-70
2022/07/29 03:00:27;;;;;;;;;;;14.50;99.90;;;;;;5117490;28;19928;-68
2022/07/29 03:02:53;;;;;;;;;;;14.50;99.90;;;;;;5099125;28;19972;-70
2022/07/29 03:05:19;;;;;;;;;;;14.50;99.90;;;;;;5117208;28;20271;-68
2022/07/29 03:07:47;;;;;;;;;;;14.50;99.90;;;;;;5117472;28;20362;-68
2022/07/29 03:10:13;;;;;;;;;;;14.50;99.90;;;;;;5117283;28;20025;-69
2022/07/29 03:12:39;;;;;;;;;;;14.50;99.90;;;;;;5117369;28;20016;-68
2022/07/29 03:15:05;;;;;;;;;;;14.50;99.90;;;;;;5117194;28;19930;-69
2022/07/29 03:17:31;;;;;;;;;;;14.50;99.90;;;;;;5117152;28;19928;-68
2022/07/29 03:19:57;;;;;;;;;;;14.50;99.90;;;;;;5117031;28;19923;-68
2022/07/29 03:22:23;;;;;;;;;;;14.50;99.90;;;;;;5098952;28;19931;-70
2022/07/29 03:24:49;;;;;;;;;;;14.50;99.90;;;;;;5099173;28;20018;-68
2022/07/29 03:27:14;;;;;;;;;;;14.70;99.90;;;;;;5101637;27;19923;-70
2022/07/29 03:29:40;;;;;;;;;;;14.50;99.90;;;;;;5137450;27;19923;-69
2022/07/29 03:32:05;;;;;;;;;;;14.70;99.90;;;;;;5137604;27;19930;-70
2022/07/29 03:34:31;;;;;;;;;;;14.50;99.90;;;;;;5137367;27;20420;-67
2022/07/29 03:36:57;;;;;;;;;;;14.50;99.90;;;;;;5137217;27;19927;-68
2022/07/29 03:39:24;;;;;;;;;;;14.50;99.90;;;;;;5137394;27;20030;-69
2022/07/29 03:41:51;;;;;;;;;;;13.50;99.90;;;;;;5119301;27;19923;-70
2022/07/29 03:44:17;;;;;;;;;;;14.50;99.90;;;;;;5137275;27;20299;-68
2022/07/29 03:46:44;;;;;;;;;;;14.50;99.90;;;;;;5119041;27;19923;-69
2022/07/29 03:49:11;;;;;;;;;;;14.50;99.90;;;;;;5117173;27;20401;-69
2022/07/29 03:51:36;;;;;;;;;;;14.50;99.90;;;;;;5136984;27;19931;-68
2022/07/29 03:54:03;;;;;;;;;;;14.50;99.90;;;;;;5137190;27;19923;-69
2022/07/29 03:56:29;;;;;;;;;;;14.50;99.90;;;;;;5136947;27;19924;-68
2022/07/29 03:58:55;;;;;;;;;;;14.50;99.90;;;;;;5136001;27;19923;-70
2022/07/29 04:01:20;;;;;;;;;;;14.50;99.90;;;;;;5118573;27;20347;-68
2022/07/29 04:03:46;;;;;;;;;;;14.50;99.90;;;;;;5136777;27;20048;-70
2022/07/29 04:06:12;;;;;;;;;;;14.60;99.90;;;;;;5136612;27;19933;-68
2022/07/29 04:08:37;;;;;;;;;;;14.60;99.90;;;;;;5136841;27;19923;-70
2022/07/29 04:11:03;;;;;;;;;;;14.50;99.90;;;;;;5152832;27;19923;-69
2022/07/29 04:13:29;;;;;;;;;;;14.50;99.90;;;;;;5136606;27;19967;-69
2022/07/29 04:15:55;;;;;;;;;;;14.50;99.90;;;;;;5136676;27;19927;-68
2022/07/29 04:18:20;;;;;;;;;;;14.60;99.90;;;;;;5136503;27;20022;-70
2022/07/29 04:20:46;;;;;;;;;;;14.60;99.90;;;;;;5136396;27;19930;-68
2022/07/29 04:23:11;;;;;;;;;;;14.60;99.90;;;;;;5136254;27;19934;-68
2022/07/29 04:25:38;;;;;;;;;;;14.60;99.90;;;;;;5136548;27;20418;-70
2022/07/29 04:28:04;;;;;;;;;;;14.60;99.90;;;;;;5136151;27;19967;-70
2022/07/29 04:30:30;;;;;;;;;;;14.60;99.90;;;;;;5136308;27;19974;-68
2022/07/29 04:32:55;;;;;;;;;;;14.60;99.90;;;;;;5136087;27;19924;-70
2022/07/29 04:35:21;;;;;;;;;;;14.60;99.90;;;;;;5136090;27;19923;-68
2022/07/29 04:37:47;;;;;;;;;;;14.60;99.90;;;;;;5117943;27;19930;-70
2022/07/29 04:40:12;;;;;;;;;;;14.60;99.90;;;;;;5136243;27;20381;-68
2022/07/29 04:42:38;;;;;;;;;;;14.60;99.90;;;;;;5135798;27;20013;-69
2022/07/29 04:45:04;;;;;;;;;;;14.60;99.90;;;;;;5117702;27;19923;-70
2022/07/29 04:47:29;;;;;;;;;;;14.70;99.90;;;;;;5135955;27;19923;-69
2022/07/29 04:49:56;;;;;;;;;;;14.60;99.90;;;;;;5135789;27;19923;-67
2022/07/29 04:52:22;;;;;;;;;;;14.60;99.90;;;;;;5135790;27;19946;-69
2022/07/29 04:54:47;;;;;;;;;;;14.70;99.90;;;;;;5135666;27;19924;-70
2022/07/29 04:57:13;;;;;;;;;;;14.60;99.90;;;;;;5117367;27;20007;-70
2022/07/29 04:59:38;;;;;;;;;;;14.70;99.90;;;;;;5117370;27;19927;-70
2022/07/29 05:02:04;;;;;;;;;;;14.70;99.90;;;;;;5135735;27;19927;-69
2022/07/29 05:04:29;;;;;;;;;;;14.70;99.90;;;;;;5135686;27;19931;-70
2022/07/29 05:06:55;;;;;;;;;;;14.70;99.90;;;;;;5135540;27;19930;-69
2022/07/29 05:09:20;;;;;;;;;;;14.70;99.90;;;;;;5135300;27;19930;-69
2022/07/29 05:11:46;;;;;;;;;;;14.70;99.90;;;;;;5151604;27;19930;-68
2022/07/29 05:14:12;;;;;;;;;;;14.70;99.90;;;;;;5135523;27;19997;-68
2022/07/29 05:16:39;;;;;;;;;;;14.70;99.90;;;;;;5135327;27;19923;-69
2022/07/29 05:19:04;;;;;;;;;;;14.40;99.90;;;;;;5135277;27;20344;-69
2022/07/29 05:21:30;;;;;;;;;;;14.80;99.90;;;;;;5135243;27;19923;-68
2022/07/29 05:23:55;;;;;;;;;;;14.80;99.90;;;;;;5117084;27;19923;-70
2022/07/29 05:26:21;;;;;;;;;;;14.80;99.90;;;;;;5135073;27;19976;-70
2022/07/29 05:28:46;;;;;;;;;;;14.80;99.90;;;;;;5134988;27;19977;-68
2022/07/29 05:31:14;;;;;;;;;;;14.80;99.90;;;;;;5151172;27;19980;-69
2022/07/29 05:33:40;;;;;;;;;;;14.90;99.90;;;;;;5135122;27;19977;-69
2022/07/29 05:36:06;;;;;;;;;;;15.10;99.90;;;;;;5135108;27;20446;-68
2022/07/29 05:38:32;;;;;;;;;;;14.90;99.90;;;;;;5134977;27;20026;-70
2022/07/29 05:40:59;;;;;;;;;;;14.90;99.90;;;;;;5134843;27;19976;-69
2022/07/29 05:43:24;;;;;;;;;;;14.90;99.90;;;;;;5135087;27;19930;-68
2022/07/29 05:45:50;;;;;;;;;;;15.00;99.90;;;;;;5134961;27;19923;-69
2022/07/29 05:48:15;;;;;;;;;;;15.00;99.90;;;;;;5134918;27;19929;-69
2022/07/29 05:50:41;;;;;;;;;;;15.00;99.90;;;;;;5134630;27;19923;-69
2022/07/29 05:53:06;;;;;;;;;;;14.00;99.90;;;;;;5134798;27;19923;-67
2022/07/29 05:55:32;;;;;;;;;;;15.10;99.90;;;;;;5134810;27;19934;-68
2022/07/29 05:57:57;;;;;;;;;;;15.10;99.90;;;;;;5134869;27;19966;-69
2022/07/29 06:00:23;;;;;;;;;;;15.10;99.90;;;;;;5134883;27;20366;-68
2022/07/29 06:02:49;;;;;;;;;;;15.10;99.90;;;;;;5151041;27;19946;-70
2022/07/29 06:05:15;;;;;;;;;;;15.10;99.90;;;;;;5134654;28;20001;-70
2022/07/29 06:07:40;;;;;;;;;;;15.10;99.90;;;;;;5134667;28;19928;-70
2022/07/29 06:10:06;;;;;;;;;;;15.00;99.90;;;;;;5116226;27;19969;-69
2022/07/29 06:12:32;;;;;;;;;;;15.00;99.90;;;;;;5137554;27;20405;-68
2022/07/29 06:14:57;;;;;;;;;;;15.10;99.90;;;;;;5138999;27;19975;-71
2022/07/29 06:17:23;;;;;;;;;;;15.10;99.90;;;;;;5120642;27;19967;-68
2022/07/29 06:19:48;;;;;;;;;;;15.00;99.90;;;;;;5138808;27;19930;-68
2022/07/29 06:22:17;;;;;;;;;;;15.10;99.90;;;;;;5138722;27;19976;-68
2022/07/29 06:24:43;;;;;;;;;;;15.10;99.90;;;;;;5138684;27;19935;-68
2022/07/29 06:27:09;;;;;;;;;;;15.10;99.90;;;;;;5138299;27;19972;-69
2022/07/29 06:29:35;;;;;;;;;;;15.10;99.90;;;;;;5138701;27;19924;-69
2022/07/29 06:32:02;;;;;;;;;;;15.20;99.90;;;;;;5138635;27;20382;-68
2022/07/29 06:34:27;;;;;;;;;;;15.20;99.90;;;;;;5138685;27;19924;-69
2022/07/29 06:36:53;;;;;;;;;;;15.20;99.90;;;;;;5120104;27;19929;-69
2022/07/29 06:39:19;;;;;;;;;;;15.20;99.90;;;;;;5138447;27;19924;-69
2022/07/29 06:41:51;;;;;;;;;;;15.20;99.90;;;;;;5138252;27;19923;-68
2022/07/29 06:44:17;;;;;;;;;;;15.20;99.90;;;;;;5138426;27;19978;-68
2022/07/29 06:46:43;;;;;;;;;;;15.20;99.90;;;;;;5138201;27;20301;-69
2022/07/29 06:49:09;;;;;;;;;;;15.20;99.90;;;;;;5154461;27;19934;-68
2022/07/29 06:51:35;;;;;;;;;;;15.20;99.90;;;;;;5120186;27;20438;-71
2022/07/29 06:54:01;;;;;;;;;;;15.20;99.90;;;;;;5138174;27;19930;-68
2022/07/29 06:56:27;;;;;;;;;;;15.20;99.90;;;;;;5137991;27;19924;-71
2022/07/29 06:58:52;;;;;;;;;;;15.20;99.90;;;;;;5138182;27;20389;-68
2022/07/29 07:01:18;;;;;;;;;;;15.30;99.90;;;;;;5138195;27;19981;-69
2022/07/29 07:03:43;;;;;;;;;;;15.30;99.90;;;;;;5137866;27;19931;-68
2022/07/29 07:06:09;;;;;;;;;;;15.30;99.90;;;;;;5138072;27;19923;-71
2022/07/29 07:08:34;;;;;;;;;;;15.30;99.90;;;;;;5137878;27;20396;-70
2022/07/29 07:11:00;;;;;;;;;;;15.30;99.90;;;;;;5137784;27;20458;-69
2022/07/29 07:13:26;;;;;;;;;;;15.30;99.90;;;;;;5119556;27;19931;-68
2022/07/29 07:15:51;;;;;;;;;;;15.40;99.90;;;;;;5137636;27;19930;-71
2022/07/29 07:18:18;;;;;;;;;;;15.40;99.90;;;;;;5119678;27;19930;-69
2022/07/29 07:20:44;;;;;;;;;;;15.40;99.90;;;;;;5137699;27;19930;-68
2022/07/29 07:23:09;;;;;;;;;;;15.40;99.90;;;;;;5137299;27;19927;-69
2022/07/29 07:25:35;;;;;;;;;;;15.60;99.90;;;;;;5137511;27;19931;-69
2022/07/29 07:28:01;;;;;;;;;;;15.50;99.90;;;;;;5137158;27;20025;-68
2022/07/29 07:30:27;;;;;;;;;;;15.50;99.90;;;;;;5137411;27;19923;-68
2022/07/29 07:32:52;;;;;;;;;;;15.50;99.90;;;;;;5137515;27;20010;-68
2022/07/29 07:35:18;;;;;;;;;;;15.50;99.90;;;;;;5137398;27;19974;-68
2022/07/29 07:37:44;;;;;;;;;;;15.50;99.90;;;;;;5119302;27;19924;-68
2022/07/29 07:40:11;;;;;;;;;;;15.60;99.90;;;;;;5118969;27;20381;-71
2022/07/29 07:42:37;;;;;;;;;;;15.70;99.90;;;;;;5118806;27;19930;-69
2022/07/29 07:45:03;;;;;;;;;;;15.60;99.90;;;;;;5101772;27;19924;-68
2022/07/29 07:47:28;;;;;;;;;;;15.70;99.90;;;;;;5118928;27;19923;-69
2022/07/29 07:49:54;;;;;;;;;;;15.60;99.90;;;;;;5137135;27;19970;-68
2022/07/29 07:52:20;;;;;;;;;;;15.70;99.90;;;;;;5137168;27;19930;-68
2022/07/29 07:54:46;;;;;;;;;;;15.70;99.90;;;;;;5136971;27;19946;-69
2022/07/29 07:57:12;;;;;;;;;;;15.80;99.90;;;;;;5152791;27;20437;-71
2022/07/29 07:59:38;;;;;;;;;;;15.80;99.90;;;;;;5136777;27;19931;-68
2022/07/29 08:02:04;;;;;;;;;;;15.80;99.90;;;;;;5153096;27;20290;-68
2022/07/29 08:04:30;;;;;;;;;;;15.80;99.90;;;;;;5136916;27;19927;-69
2022/07/29 08:06:55;;;;;;;;;;;15.80;99.90;;;;;;5136715;27;20350;-69
2022/07/29 08:09:21;;;;;;;;;;;15.90;99.90;;;;;;5136600;27;19927;-69
2022/07/29 08:11:47;;;;;;;;;;;15.90;99.90;;;;;;5118350;27;19924;-68
2022/07/29 08:14:13;;;;;;;;;;;15.90;99.90;;;;;;5118441;27;20382;-68
2022/07/29 08:16:39;;;;;;;;;;;16.00;99.90;;;;;;5136708;27;19923;-68
2022/07/29 08:19:05;;;;;;;;;;;16.00;99.90;;;;;;5118514;27;20018;-68
2022/07/29 08:21:31;;;;;;;;;;;16.00;99.90;;;;;;5152891;27;19970;-69
2022/07/29 08:24:42;;;;;;;;;;;16.10;99.90;;;;;;5136457;27;20359;-70
2022/07/29 08:26:43;;;;;;;;;;;16.10;99.90;;;;;;5136151;27;19923;-69
2022/07/29 08:29:09;;;;;;;;;;;16.10;99.90;;;;;;5136318;27;19927;-68
2022/07/29 08:31:35;;;;;;;;;;;16.10;99.90;;;;;;5117897;27;20298;-68
2022/07/29 08:34:02;;;;;;;;;;;16.20;99.90;;;;;;5135762;27;19931;-70
2022/07/29 08:36:27;;;;;;;;;;;16.20;99.90;;;;;;5136221;27;19929;-68
2022/07/29 08:38:53;;;;;;;;;;;16.30;99.90;;;;;;5136113;27;19923;-68
2022/07/29 08:41:19;;;;;;;;;;;16.30;99.90;;;;;;5136033;27;19923;-69
2022/07/29 08:43:44;;;;;;;;;;;16.30;99.90;;;;;;5135912;27;20018;-69
2022/07/29 08:46:10;;;;;;;;;;;16.40;99.90;;;;;;5136207;27;19937;-69
2022/07/29 08:48:36;;;;;;;;;;;16.40;99.90;;;;;;5135990;27;20409;-68
2022/07/29 08:51:02;;;;;;;;;;;16.40;99.90;;;;;;5135891;27;20033;-68
2022/07/29 08:53:28;;;;;;;;;;;16.30;99.90;;;;;;5117852;27;19930;-68
2022/07/29 08:55:54;;;;;;;;;;;16.50;99.90;;;;;;5117768;27;19923;-69
2022/07/29 08:58:20;;;;;;;;;;;16.60;99.90;;;;;;5135601;27;19923;-69
2022/07/29 09:00:49;;;;;;;;;;;16.50;99.90;;;;;;5135810;27;19930;-69
2022/07/29 09:03:19;;;;;;;;;;;16.70;99.90;;;;;;5135760;27;20297;-69
2022/07/29 09:05:45;;;;;;;;;;;16.80;99.90;;;;;;5135614;27;19924;-69
2022/07/29 09:08:12;;;;;;;;;;;16.70;99.90;;;;;;5117198;27;20018;-70
2022/07/29 09:10:38;;;;;;;;;;;16.80;99.90;;;;;;5135401;27;19931;-69
2022/07/29 09:13:03;;;;;;;;;;;16.80;99.90;;;;;;5117292;27;19923;-68
2022/07/29 09:15:29;;;;;;;;;;;16.80;99.90;;;;;;5117260;27;19923;-70
2022/07/29 09:17:56;;;;;;;;;;;16.80;99.90;;;;;;5117168;27;19963;-70
2022/07/29 09:20:22;;;;;;;;;;;16.90;99.90;;;;;;5117302;27;19923;-68
2022/07/29 09:22:49;;;;;;;;;;;16.90;99.90;;;;;;5135325;27;20006;-69
2022/07/29 09:25:30;;;;;;;;;;;16.90;99.90;;;;;;5135187;27;20390;-69
2022/07/29 09:28:04;;;;;;;;;;;17.00;99.90;;;;;;5135127;27;19971;-68
2022/07/29 09:30:30;;;;;;;;;;;17.00;99.90;;;;;;5133940;27;19923;-69
2022/07/29 09:33:01;;;;;;;;;;;17.10;99.90;;;;;;5116916;27;19923;-70
2022/07/29 09:35:27;;;;;;;;;;;17.10;99.90;;;;;;5117041;27;19924;-70
2022/07/29 09:37:53;;;;;;;;;;;17.10;99.90;;;;;;5116614;27;20389;-70
2022/07/29 09:40:20;;;;;;;;;;;17.20;99.90;;;;;;5116838;28;19930;-68
2022/07/29 09:42:46;;;;;;;;;;;17.20;99.90;;;;;;5135023;27;19931;-70
2022/07/29 09:45:12;;;;;;;;;;;17.20;99.90;;;;;;5134983;27;19924;-69
2022/07/29 09:47:40;;;;;;;;;;;17.30;99.90;;;;;;5135001;27;19923;-69
2022/07/29 09:50:06;;;;;;;;;;;17.30;99.90;;;;;;5134843;27;19924;-68
2022/07/29 09:52:44;;;;;;;;;;;17.30;99.90;;;;;;5116812;27;19934;-69
2022/07/29 09:55:09;;;;;;;;;;;17.30;99.90;;;;;;5151314;27;19923;-69
2022/07/29 09:57:35;;;;;;;;;;;17.40;99.90;;;;;;5116796;27;19930;-70
2022/07/29 10:00:05;;;;;;;;;;;17.50;99.90;;;;;;5134643;27;19925;-68
2022/07/29 10:02:31;;;;;;;;;;;17.50;99.90;;;;;;5116546;28;20015;-69
2022/07/29 10:04:57;;;;;;;;;;;17.60;99.90;;;;;;5134640;27;19970;-70
2022/07/29 10:07:23;;;;;;;;;;;17.70;99.90;;;;;;5134706;28;20416;-69
2022/07/29 10:09:56;;;;;;;;;;;17.70;99.90;;;;;;5134453;28;20481;-69
2022/07/29 10:12:22;;;;;;;;;;;17.80;99.90;;;;;;5134680;28;20014;-69
2022/07/29 10:14:48;;;;;;;;;;;17.90;99.90;;;;;;5134477;28;19967;-69
2022/07/29 10:17:15;;;;;;;;;;;18.00;99.90;;;;;;5134624;28;19927;-69
2022/07/29 10:19:42;;;;;;;;;;;18.00;99.90;;;;;;5134623;28;19923;-69
2022/07/29 10:22:08;;;;;;;;;;;18.10;99.90;;;;;;5134389;28;19977;-69
2022/07/29 10:24:35;;;;;;;;;;;17.30;99.90;;;;;;5116362;28;19924;-69
2022/07/29 10:27:01;;;;;;;;;;;18.20;99.90;;;;;;5134572;28;20366;-70
2022/07/29 10:29:28;;;;;;;;;;;18.30;99.90;;;;;;5134143;28;19938;-69
2022/07/29 10:32:00;;;;;;;;;;;18.30;99.90;;;;;;5116441;28;20068;-69
2022/07/29 10:34:25;;;;;;;;;;;18.40;99.90;;;;;;5134414;28;19923;-69
2022/07/29 10:37:07;;;;;;;;;;;18.50;99.90;;;;;;5134326;28;19931;-71
2022/07/29 10:39:44;;;;;;;;;;;18.50;99.90;;;;;;5134545;28;20426;-70
2022/07/29 10:42:21;;;;;;;;;;;18.60;99.90;;;;;;5116336;28;19931;-69
2022/07/29 10:44:47;;;;;;;;;;;18.70;99.90;;;;;;5134316;28;19923;-69
2022/07/29 10:47:25;;;;;;;;;;;18.70;99.90;;;;;;5134251;28;20399;-70
2022/07/29 10:50:02;;;;;;;;;;;18.80;99.90;;;;;;5134362;28;19923;-69
2022/07/29 10:52:56;;;;;;;;;;;18.80;99.90;;;;;;5116313;28;20392;-69
2022/07/29 10:55:30;;;;;;;;;;;18.30;99.90;;;;;;5125885;28;19930;-69
2022/07/29 10:58:15;;;;;;;;;;;18.90;99.90;;;;;;5152153;27;20022;-69
2022/07/29 11:00:40;;;;;;;;;;;19.00;99.90;;;;;;5138268;27;19930;-69
2022/07/29 11:03:06;;;;;;;;;;;19.00;99.90;;;;;;5138103;27;19923;-70
2022/07/29 11:05:51;;;;;;;;;;;19.10;99.90;;;;;;5137999;27;20034;-70
2022/07/29 11:08:18;;;;;;;;;;;19.20;99.90;;;;;;5137888;27;19923;-69
2022/07/29 11:10:44;;;;;;;;;;;19.20;99.90;;;;;;5137640;27;19924;-69
2022/07/29 11:13:09;;;;;;;;;;;19.20;99.90;;;;;;5137735;27;19930;-69
2022/07/29 11:15:55;;;;;;;;;;;19.30;99.90;;;;;;5137883;27;19923;-69
2022/07/29 11:18:21;;;;;;;;;;;19.40;99.90;;;;;;5136968;27;19967;-69
2022/07/29 11:20:48;;;;;;;;;;;19.40;99.90;;;;;;5137578;27;20317;-69
2022/07/29 11:23:26;;;;;;;;;;;19.40;99.90;;;;;;5137545;27;19923;-69
2022/07/29 11:26:10;;;;;;;;;;;19.50;99.90;;;;;;5137492;27;20377;-70
2022/07/29 11:28:56;;;;;;;;;;;19.50;99.90;;;;;;5119078;27;19930;-69
2022/07/29 11:31:31;;;;;;;;;;;19.60;99.90;;;;;;5136495;27;20247;-69
2022/07/29 11:33:57;;;;;;;;;;;19.50;99.90;;;;;;5137630;27;19923;-70
2022/07/29 11:36:22;;;;;;;;;;;19.60;99.90;;;;;;5137487;27;19927;-69
2022/07/29 11:38:48;;;;;;;;;;;19.60;99.90;;;;;;5137458;27;19924;-69
2022/07/29 11:41:24;;;;;;;;;;;19.60;99.90;;;;;;5137269;27;20046;-69
2022/07/29 11:43:54;;;;;;;;;;;19.60;99.90;;;;;;5137131;27;19923;-71
2022/07/29 11:46:38;;;;;;;;;;;19.60;99.90;;;;;;5119010;27;19923;-70
2022/07/29 11:49:04;;;;;;;;;;;19.70;99.90;;;;;;5137205;27;20373;-69
2022/07/29 11:51:30;;;;;;;;;;;19.70;99.90;;;;;;5137309;27;19971;-71
2022/07/29 11:53:58;;;;;;;;;;;19.70;99.90;;;;;;5137106;27;19966;-69
2022/07/29 11:56:25;;;;;;;;;;;19.70;99.90;;;;;;5137067;27;19980;-71
2022/07/29 11:59:00;;;;;;;;;;;19.80;99.90;;;;;;5136827;27;19930;-69
2022/07/29 12:01:26;;;;;;;;;;;19.80;99.90;;;;;;5136920;27;19976;-69
2022/07/29 12:04:02;;;;;;;;;;;19.70;99.90;;;;;;5136955;27;19946;-69
2022/07/29 12:06:27;;;;;;;;;;;19.80;99.90;;;;;;5118783;27;19962;-69
2022/07/29 12:08:53;;;;;;;;;;;19.80;99.90;;;;;;5117475;27;19989;-69
2022/07/29 12:11:20;;;;;;;;;;;19.80;99.90;;;;;;5136486;27;19972;-71
2022/07/29 12:13:45;;;;;;;;;;;19.90;99.90;;;;;;5136741;27;19923;-70
2022/07/29 12:16:11;;;;;;;;;;;19.90;99.90;;;;;;5136747;27;19923;-68
2022/07/29 12:18:36;;;;;;;;;;;19.90;99.90;;;;;;5136866;27;19923;-69
2022/07/29 12:21:03;;;;;;;;;;;19.90;99.90;;;;;;5136526;27;20022;-69
2022/07/29 12:23:29;;;;;;;;;;;19.90;99.90;;;;;;5136417;27;20378;-69
2022/07/29 12:25:55;;;;;;;;;;;19.90;99.90;;;;;;5136434;27;19923;-69
2022/07/29 12:28:21;;;;;;;;;;;19.90;99.90;;;;;;5117767;27;20411;-69
2022/07/29 12:30:49;;;;;;;;;;;19.90;99.90;;;;;;5117375;27;20078;-69
2022/07/29 12:33:18;;;;;;;;;;;19.90;99.90;;;;;;5136320;27;19931;-69
2022/07/29 12:35:45;;;;;;;;;;;19.90;99.90;;;;;;5118183;27;20461;-69
2022/07/29 12:38:12;;;;;;;;;;;19.90;99.90;;;;;;5136266;27;19924;-70
2022/07/29 12:40:37;;;;;;;;;;;19.90;99.90;;;;;;5118025;27;19975;-71
2022/07/29 12:43:07;;;;;;;;;;;19.80;99.90;;;;;;5117866;27;19927;-70
2022/07/29 12:45:33;;;;;;;;;;;19.90;99.90;;;;;;5136217;27;19935;-69
2022/07/29 12:47:58;;;;;;;;;;;20.00;99.90;;;;;;5136068;27;19923;-69
2022/07/29 12:50:24;;;;;;;;;;;20.00;99.90;;;;;;5135746;27;19924;-70
2022/07/29 12:52:50;;;;;;;;;;;20.00;99.90;;;;;;5135834;27;19923;-69
2022/07/29 12:55:36;;;;;;;;;;;19.90;99.90;;;;;;5135827;27;19954;-69
2022/07/29 12:58:01;;;;;;;;;;;19.90;99.90;;;;;;5135486;27;19924;-69
2022/07/29 13:00:28;;;;;;;;;;;19.90;99.90;;;;;;5135801;27;20374;-70
2022/07/29 13:02:55;;;;;;;;;;;19.90;99.90;;;;;;5135743;27;19931;-70
2022/07/29 13:05:21;;;;;;;;;;;19.90;99.90;;;;;;5135677;27;19923;-69
2022/07/29 13:07:46;;;;;;;;;;;19.90;99.90;;;;;;5117319;27;19946;-69
2022/07/29 13:10:16;;;;;;;;;;;19.90;99.90;;;;;;5135405;27;20021;-68
2022/07/29 13:13:00;;;;;;;;;;;19.90;99.90;;;;;;5135671;27;20340;-69
2022/07/29 13:15:26;;;;;;;;;;;19.90;99.90;;;;;;5135059;27;20018;-70
2022/07/29 13:17:51;;;;;;;;;;;19.90;99.90;;;;;;5153523;27;19965;-69
2022/07/29 13:20:17;;;;;;;;;;;19.90;99.90;;;;;;5155601;27;19975;-70
2022/07/29 13:22:47;;;;;;;;;;;19.90;99.90;;;;;;5137711;27;20370;-71
2022/07/29 13:25:12;;;;;;;;;;;19.90;99.90;;;;;;5157064;27;20343;-70
2022/07/29 13:27:39;;;;;;;;;;;19.90;99.90;;;;;;5137520;27;19971;-69
2022/07/29 13:30:06;;;;;;;;;;;19.90;99.90;;;;;;5155824;27;19923;-69
2022/07/29 13:32:34;;;;;;;;;;;19.90;99.90;;;;;;5131559;27;19923;-70
2022/07/29 13:35:00;;;;;;;;;;;19.90;99.90;;;;;;5176502;27;19930;-69
2022/07/29 13:37:29;;;;;;;;;;;19.80;99.90;;;;;;5171463;27;20365;-69
2022/07/29 13:39:55;;;;;;;;;;;19.80;99.90;;;;;;5157514;27;19923;-70
2022/07/29 13:42:21;;;;;;;;;;;19.80;99.90;;;;;;5168959;27;20308;-67
2022/07/29 13:44:48;;;;;;;;;;;19.80;99.90;;;;;;5176433;27;19923;-69
2022/07/29 13:47:14;;;;;;;;;;;19.90;99.90;;;;;;5176486;27;20009;-69
2022/07/29 13:49:39;;;;;;;;;;;19.90;99.90;;;;;;5176486;27;20056;-68
2022/07/29 13:52:07;;;;;;;;;;;19.90;99.90;;;;;;5156754;27;19923;-69
2022/07/29 13:54:32;;;;;;;;;;;19.80;99.90;;;;;;5176467;27;19923;-72
2022/07/29 13:56:58;;;;;;;;;;;19.90;99.90;;;;;;5176292;27;19949;-70
2022/07/29 13:59:23;;;;;;;;;;;19.90;99.90;;;;;;5157351;27;19971;-71
2022/07/29 14:01:49;;;;;;;;;;;19.90;99.90;;;;;;5176369;27;19926;-70
2022/07/29 14:04:15;;;;;;;;;;;19.90;99.90;;;;;;5176281;27;19923;-71
2022/07/29 14:06:40;;;;;;;;;;;19.90;99.90;;;;;;5176214;27;20331;-69
2022/07/29 14:09:08;;;;;;;;;;;19.90;99.90;;;;;;5157272;27;19923;-71
2022/07/29 14:11:34;;;;;;;;;;;19.90;99.90;;;;;;5176262;27;19982;-70
2022/07/29 14:13:59;;;;;;;;;;;19.90;99.90;;;;;;5176184;27;19926;-70
2022/07/29 14:16:25;;;;;;;;;;;19.90;99.90;;;;;;5171812;27;19929;-68
2022/07/29 14:18:51;;;;;;;;;;;19.90;99.90;;;;;;5161617;27;19931;-69